createdAt,value
2022-09-05T00:00:49.962Z,4.9
2022-09-05T00:02:50.213Z,5.2
2022-09-05T00:04:50.502Z,4.9
2022-09-05T00:06:49.857Z,4.9
2022-09-05T00:08:50.196Z,5.1
2022-09-05T00:11:16.822Z,5.1
2022-09-05T00:13:07.279Z,5.0
2022-09-05T00:15:17.905Z,5.4
2022-09-05T00:16:50.169Z,5.1
2022-09-05T00:20:58.794Z,5.1
2022-09-05T00:23:35.269Z,5.6
2022-09-05T00:24:24.549Z,5.5
2022-09-05T00:25:21.151Z,5.6
2022-09-05T00:26:50.986Z,5.9
2022-09-05T00:28:50.408Z,5.6
2022-09-05T00:31:06.388Z,5.6
2022-09-05T00:32:50.522Z,5.6
2022-09-05T00:34:49.822Z,5.8
2022-09-05T00:36:50.368Z,5.8
2022-09-05T00:38:50.514Z,5.9
2022-09-05T00:40:50.557Z,5.6
2022-09-05T00:42:50.630Z,5.7
2022-09-05T00:44:50.552Z,6.2
2022-09-05T00:46:50.202Z,5.7
2022-09-05T00:48:50.700Z,5.7
2022-09-05T00:50:49.955Z,6.1
2022-09-05T00:53:07.155Z,5.9
2022-09-05T00:54:50.498Z,5.5
2022-09-05T00:56:50.012Z,5.5
2022-09-05T00:58:50.251Z,5.3
2022-09-05T01:00:49.708Z,5.2
2022-09-05T01:02:52.392Z,5.3
2022-09-05T01:04:50.658Z,5.5
2022-09-05T01:06:50.243Z,5.8
2022-09-05T01:08:50.463Z,5.8
2022-09-05T01:10:49.917Z,5.5
2022-09-05T01:12:53.346Z,5.5
2022-09-05T01:14:50.342Z,5.7
2022-09-05T01:16:50.142Z,5.3
2022-09-05T01:18:50.348Z,5.3
2022-09-05T01:20:50.206Z,5.1
2022-09-05T01:22:50.200Z,4.8
2022-09-05T01:24:50.217Z,5.0
2022-09-05T01:26:49.786Z,5.0
2022-09-05T01:29:17.522Z,5.1
2022-09-05T01:30:49.871Z,4.7
2022-09-05T01:32:50.147Z,5.1
2022-09-05T01:34:50.636Z,5.1
2022-09-05T01:36:50.347Z,4.9
2022-09-05T01:39:07.297Z,5.1
2022-09-05T01:41:03.181Z,5.4
2022-09-05T01:42:50.528Z,5.1
2022-09-05T01:44:50.677Z,5.1
2022-09-05T01:46:51.210Z,5.0
2022-09-05T01:48:50.384Z,5.1
2022-09-05T01:50:51.731Z,4.9
2022-09-05T01:53:02.619Z,4.9
2022-09-05T01:54:50.572Z,4.9
2022-09-05T01:56:50.375Z,4.8
2022-09-05T01:58:50.495Z,5.2
2022-09-05T02:00:50.520Z,5.1
2022-09-05T02:02:51.186Z,5.3
2022-09-05T02:04:49.889Z,5.3
2022-09-05T02:06:50.140Z,5.3
2022-09-05T02:08:50.495Z,5.2
2022-09-05T02:10:49.743Z,5.2
2022-09-05T02:13:02.778Z,5.2
2022-09-05T02:14:50.473Z,5.3
2022-09-05T02:16:49.783Z,5.6
2022-09-05T02:18:50.082Z,5.6
2022-09-05T02:20:50.362Z,5.2
2022-09-05T02:22:50.579Z,5.2
2022-09-05T02:25:02.569Z,5.2
2022-09-05T02:26:50.532Z,5.9
2022-09-05T02:28:49.785Z,5.9
2022-09-05T02:31:19.278Z,5.9
2022-09-05T02:32:49.982Z,5.8
2022-09-05T02:34:50.583Z,5.8
2022-09-05T02:36:49.996Z,5.8
2022-09-05T02:40:02.370Z,5.7
2022-09-05T02:45:04.615Z,5.5
2022-09-05T02:45:05.178Z,6.0
2022-09-05T02:45:05.389Z,6.0
2022-09-05T02:46:51.271Z,5.5
2022-09-05T02:48:49.871Z,5.9
2022-09-05T02:52:54.944Z,5.9
2022-09-05T02:57:30.942Z,5.4
2022-09-05T02:57:30.963Z,5.8
2022-09-05T02:57:32.005Z,5.9
2022-09-05T02:59:08.935Z,5.8
2022-09-05T03:00:51.242Z,5.8
2022-09-05T03:02:50.460Z,6.0
2022-09-05T03:04:51.187Z,5.5
2022-09-05T03:06:50.339Z,6.2
2022-09-05T03:08:54.499Z,6.0
2022-09-05T03:10:55.086Z,6.0
2022-09-05T03:12:50.342Z,6.1
2022-09-05T03:14:50.397Z,6.2
2022-09-05T03:16:50.066Z,6.0
2022-09-05T03:18:50.128Z,6.0
2022-09-05T03:20:50.375Z,6.1
2022-09-05T03:22:50.408Z,6.1
2022-09-05T03:24:56.374Z,5.9
2022-09-05T03:26:50.450Z,6.6
2022-09-05T03:28:50.506Z,6.6
2022-09-05T03:30:50.778Z,6.6
2022-09-05T03:32:50.170Z,6.7
2022-09-05T03:34:50.101Z,6.6
2022-09-05T03:36:50.526Z,6.6
2022-09-05T03:38:50.595Z,6.2
2022-09-05T03:40:50.574Z,6.2
2022-09-05T03:42:50.804Z,6.1
2022-09-05T03:44:50.545Z,6.2
2022-09-05T03:46:50.049Z,6.0
2022-09-05T03:48:50.382Z,5.8
2022-09-05T03:52:23.394Z,6.2
2022-09-05T03:57:09.043Z,6.2
2022-09-05T03:57:10.133Z,6.3
2022-09-05T03:57:21.696Z,6.4
2022-09-05T03:58:57.730Z,6.2
2022-09-05T04:01:11.136Z,6.2
2022-09-05T04:04:39.294Z,6.0
2022-09-05T04:07:50.212Z,6.1
2022-09-05T04:08:13.074Z,6.1
2022-09-05T04:08:50.938Z,6.1
2022-09-05T04:10:51.366Z,6.1
2022-09-05T04:12:50.459Z,6.1
2022-09-05T04:14:49.747Z,6.1
2022-09-05T04:16:50.277Z,6.1
2022-09-05T04:18:49.773Z,6.1
2022-09-05T04:20:49.770Z,5.9
2022-09-05T04:22:50.047Z,5.9
2022-09-05T04:24:50.164Z,6.1
2022-09-05T04:26:50.463Z,6.4
2022-09-05T04:28:54.081Z,6.4
2022-09-05T04:30:50.173Z,6.5
2022-09-05T04:32:54.957Z,6.1
2022-09-05T04:34:51.360Z,6.6
2022-09-05T04:36:49.886Z,6.6
2022-09-05T04:38:49.845Z,7.0
2022-09-05T04:40:50.256Z,6.5
2022-09-05T04:42:50.217Z,6.7
2022-09-05T04:44:56.090Z,6.6
2022-09-05T04:46:49.818Z,6.5
2022-09-05T04:48:51.270Z,6.5
2022-09-05T04:50:50.156Z,6.6
2022-09-05T04:52:50.223Z,6.6
2022-09-05T04:54:50.233Z,6.7
2022-09-05T04:56:49.774Z,6.5
2022-09-05T05:00:51.414Z,6.5
2022-09-05T05:04:47.350Z,7.3
2022-09-05T05:06:06.578Z,6.3
2022-09-05T05:06:07.771Z,9.2
2022-09-05T05:06:50.149Z,9.2
2022-09-05T05:08:50.176Z,7.1
2022-09-05T05:13:55.336Z,6.3
2022-09-05T05:16:42.505Z,5.9
2022-09-05T05:18:05.472Z,6.1
2022-09-05T05:18:05.759Z,6.1
2022-09-05T05:19:03.730Z,5.7
2022-09-05T05:20:49.839Z,5.9
2022-09-05T05:22:50.926Z,5.6
2022-09-05T05:24:50.157Z,5.9
2022-09-05T05:26:57.389Z,5.9
2022-09-05T05:28:50.387Z,5.8
2022-09-05T05:30:51.797Z,5.9
2022-09-05T05:32:50.292Z,6.2
2022-09-05T05:34:50.045Z,5.5
2022-09-05T05:36:50.334Z,5.5
2022-09-05T05:38:50.468Z,7.2
2022-09-05T05:40:51.533Z,5.7
2022-09-05T05:42:49.783Z,5.2
2022-09-05T05:44:54.664Z,5.3
2022-09-05T05:46:50.321Z,5.3
2022-09-05T05:48:57.628Z,5.4
2022-09-05T05:50:49.736Z,5.3
2022-09-05T05:52:50.565Z,5.0
2022-09-05T05:54:50.792Z,5.0
2022-09-05T05:56:49.761Z,5.2
2022-09-05T05:58:49.975Z,5.2
2022-09-05T06:00:52.210Z,4.9
2022-09-05T06:03:01.901Z,5.3
2022-09-05T06:04:50.470Z,4.5
2022-09-05T06:06:50.659Z,4.5
2022-09-05T06:10:14.411Z,4.6
2022-09-05T06:13:48.868Z,4.1
2022-09-05T06:14:53.351Z,4.1
2022-09-05T06:15:08.417Z,3.5
2022-09-05T06:16:50.177Z,3.4
2022-09-05T06:18:50.616Z,2.9
2022-09-05T06:22:05.299Z,3.2
2022-09-05T06:22:50.536Z,3.2
2022-09-05T06:24:51.325Z,3.3
2022-09-05T06:26:50.327Z,3.4
2022-09-05T06:28:50.390Z,3.4
2022-09-05T06:31:21.199Z,2.9
2022-09-05T06:32:58.741Z,2.9
2022-09-05T06:34:50.327Z,2.7
2022-09-05T06:36:49.940Z,3.1
2022-09-05T06:38:49.988Z,2.7
2022-09-05T06:40:50.031Z,2.7
2022-09-05T06:42:50.280Z,2.9
2022-09-05T06:44:49.781Z,2.9
2022-09-05T06:47:22.271Z,2.6
2022-09-05T06:49:28.641Z,2.5
2022-09-05T06:51:07.584Z,2.5
2022-09-05T06:52:49.963Z,3.2
2022-09-05T06:55:00.177Z,3.2
2022-09-05T06:56:50.548Z,2.9
2022-09-05T06:58:50.655Z,2.6
2022-09-05T07:00:49.855Z,2.6
2022-09-05T07:03:00.545Z,2.4
2022-09-05T07:05:24.357Z,2.4
2022-09-05T07:07:02.072Z,2.5
2022-09-05T07:08:50.530Z,2.5
2022-09-05T07:10:49.802Z,2.4
2022-09-05T07:12:49.776Z,2.4
2022-09-05T07:14:49.726Z,2.4
2022-09-05T07:16:50.066Z,2.7
2022-09-05T07:18:50.079Z,2.2
2022-09-05T07:21:16.084Z,3.0
2022-09-05T07:22:49.834Z,3.0
2022-09-05T07:24:55.578Z,2.4
2022-09-05T07:26:55.002Z,2.5
2022-09-05T07:28:51.861Z,2.5
2022-09-05T07:30:49.821Z,2.4
2022-09-05T07:32:49.762Z,2.4
2022-09-05T07:34:50.058Z,2.1
2022-09-05T07:37:14.395Z,2.4
2022-09-05T07:39:18.616Z,2.6
2022-09-05T07:40:50.301Z,2.6
2022-09-05T07:43:08.345Z,2.3
2022-09-05T07:44:50.126Z,2.1
2022-09-05T07:46:50.346Z,2.3
2022-09-05T07:48:50.182Z,2.3
2022-09-05T07:51:38.859Z,2.3
2022-09-05T07:56:48.488Z,2.2
2022-09-05T07:56:57.974Z,2.4
2022-09-05T07:57:25.282Z,2.2
2022-09-05T07:58:50.739Z,2.2
2022-09-05T08:00:49.855Z,2.2
2022-09-05T08:02:55.147Z,2.2
2022-09-05T08:04:50.780Z,2.3
2022-09-05T08:07:46.352Z,2.1
2022-09-05T08:09:18.346Z,2.1
2022-09-05T08:11:17.218Z,2.4
2022-09-05T08:13:23.158Z,2.4
2022-09-05T08:14:50.266Z,2.4
2022-09-05T08:16:50.589Z,2.3
2022-09-05T08:18:49.918Z,2.0
2022-09-05T08:20:50.554Z,2.1
2022-09-05T08:22:52.909Z,2.3
2022-09-05T08:24:49.958Z,2.1
2022-09-05T08:26:50.169Z,2.1
2022-09-05T08:28:50.341Z,2.1
2022-09-05T08:30:50.278Z,2.1
2022-09-05T08:32:52.870Z,1.9
2022-09-05T08:34:50.567Z,1.8
2022-09-05T08:36:50.634Z,1.8
2022-09-05T08:38:49.865Z,1.7
2022-09-05T08:40:49.790Z,1.8
2022-09-05T08:43:30.950Z,1.7
2022-09-05T08:46:45.527Z,2.0
2022-09-05T08:46:50.916Z,2.6
2022-09-05T08:48:52.210Z,2.6
2022-09-05T08:50:50.352Z,2.1
2022-09-05T08:52:50.367Z,2.2
2022-09-05T08:54:57.597Z,1.8
2022-09-05T08:56:50.010Z,2.4
2022-09-05T08:59:28.662Z,2.4
2022-09-05T09:00:59.112Z,2.0
2022-09-05T09:02:50.142Z,2.0
2022-09-05T09:05:02.058Z,2.0
2022-09-05T09:07:46.959Z,1.8
2022-09-05T09:08:49.835Z,1.7
2022-09-05T09:10:49.790Z,2.2
2022-09-05T09:12:50.654Z,1.9
2022-09-05T09:14:50.566Z,1.9
2022-09-05T09:16:50.482Z,2.3
2022-09-05T09:18:50.417Z,2.3
2022-09-05T09:20:50.431Z,1.8
2022-09-05T09:22:50.475Z,1.8
2022-09-05T09:25:12.091Z,1.8
2022-09-05T09:26:50.282Z,1.8
2022-09-05T09:28:52.275Z,1.7
2022-09-05T09:30:52.069Z,1.9
2022-09-05T09:32:49.941Z,2.0
2022-09-05T09:34:52.936Z,2.0
2022-09-05T09:36:50.070Z,1.6
2022-09-05T09:38:50.032Z,1.6
2022-09-05T09:41:01.067Z,1.7
2022-09-05T09:42:49.752Z,1.8
2022-09-05T09:44:50.742Z,1.8
2022-09-05T09:46:50.638Z,1.8
2022-09-05T09:48:51.789Z,2.2
2022-09-05T09:51:00.557Z,2.0
2022-09-05T09:52:49.774Z,2.0
2022-09-05T09:54:51.146Z,1.6
2022-09-05T09:56:50.137Z,1.7
2022-09-05T09:58:50.004Z,1.7
2022-09-05T10:00:49.825Z,2.2
2022-09-05T10:04:27.559Z,1.7
2022-09-05T10:05:41.501Z,1.7
2022-09-05T10:10:37.085Z,1.8
2022-09-05T10:10:41.427Z,1.8
2022-09-05T10:11:33.776Z,1.6
2022-09-05T10:13:07.633Z,1.6
2022-09-05T10:14:51.340Z,1.6
2022-09-05T10:16:52.041Z,1.4
2022-09-05T10:18:49.767Z,1.4
2022-09-05T10:21:15.957Z,1.3
2022-09-05T10:22:49.755Z,1.3
2022-09-05T10:24:51.262Z,1.5
2022-09-05T10:26:50.350Z,1.8
2022-09-05T10:28:50.061Z,1.5
2022-09-05T10:31:46.640Z,1.6
2022-09-05T10:34:56.511Z,1.8
2022-09-05T10:35:12.740Z,1.8
2022-09-05T10:36:52.547Z,1.7
2022-09-05T10:38:50.506Z,1.6
2022-09-05T10:41:14.711Z,1.6
2022-09-05T10:43:01.287Z,1.7
2022-09-05T10:44:50.441Z,1.7
2022-09-05T10:46:52.193Z,1.6
2022-09-05T10:48:53.661Z,1.4
2022-09-05T10:50:50.583Z,1.4
2022-09-05T10:52:50.396Z,1.6
2022-09-05T10:55:14.459Z,1.6
2022-09-05T10:56:50.499Z,1.7
2022-09-05T10:59:56.963Z,1.7
2022-09-05T11:02:25.705Z,1.7
2022-09-05T11:02:56.224Z,1.7
2022-09-05T11:04:51.320Z,1.6
2022-09-05T11:06:50.138Z,1.6
2022-09-05T11:08:49.956Z,1.7
2022-09-05T11:10:49.845Z,1.8
2022-09-05T11:12:57.919Z,1.8
2022-09-05T11:14:49.953Z,1.7
2022-09-05T11:16:50.398Z,1.6
2022-09-05T11:18:57.063Z,1.6
2022-09-05T11:20:49.694Z,1.8
2022-09-05T11:22:50.606Z,1.8
2022-09-05T11:24:50.465Z,1.5
2022-09-05T11:27:13.828Z,1.6
2022-09-05T11:29:00.922Z,1.7
2022-09-05T11:30:49.882Z,1.7
2022-09-05T11:34:04.190Z,1.7
2022-09-05T11:39:49.903Z,1.5
2022-09-05T11:40:01.896Z,1.8
2022-09-05T11:40:01.909Z,1.6
2022-09-05T11:41:08.195Z,1.6
2022-09-05T11:42:49.739Z,1.3
2022-09-05T11:44:50.626Z,1.5
2022-09-05T11:46:52.238Z,1.6
2022-09-05T11:48:53.844Z,1.6
2022-09-05T11:50:49.853Z,1.6
2022-09-05T11:52:49.823Z,1.7
2022-09-05T11:54:50.160Z,1.4
2022-09-05T11:56:50.475Z,1.5
2022-09-05T11:58:50.838Z,1.5
2022-09-05T12:01:36.891Z,1.6
2022-09-05T12:02:52.119Z,1.5
2022-09-05T12:05:48.087Z,1.6
2022-09-05T12:06:50.167Z,1.5
2022-09-05T12:08:53.159Z,1.5
2022-09-05T12:10:50.531Z,1.9
2022-09-05T12:12:50.628Z,1.9
2022-09-05T12:14:55.736Z,1.7
2022-09-05T12:16:50.246Z,1.7
2022-09-05T12:18:51.507Z,1.8
2022-09-05T12:20:50.150Z,1.8
2022-09-05T12:22:50.182Z,1.9
2022-09-05T12:25:16.727Z,1.6
2022-09-05T12:27:37.589Z,1.6
2022-09-05T12:29:26.115Z,1.9
2022-09-05T12:31:09.974Z,1.9
2022-09-05T12:33:56.600Z,1.6
2022-09-05T12:36:03.431Z,1.5
2022-09-05T12:38:53.105Z,1.5
2022-09-05T12:40:45.213Z,1.5
2022-09-05T12:41:34.952Z,1.5
2022-09-05T12:43:36.718Z,1.2
2022-09-05T12:44:51.426Z,1.2
2022-09-05T12:46:50.563Z,1.8
2022-09-05T12:48:49.766Z,1.8
2022-09-05T12:50:49.767Z,1.4
2022-09-05T12:52:49.694Z,2.1
2022-09-05T12:54:55.902Z,1.4
2022-09-05T12:58:52.255Z,1.4
2022-09-05T13:01:00.210Z,1.3
2022-09-05T13:03:00.062Z,1.4
2022-09-05T13:03:27.595Z,1.4
2022-09-05T13:05:01.647Z,1.2
2022-09-05T13:06:50.045Z,1.2
2022-09-05T13:09:00.267Z,1.5
2022-09-05T13:12:35.769Z,1.1
2022-09-05T13:14:52.235Z,1.4
2022-09-05T13:15:11.205Z,1.4
2022-09-05T13:16:50.333Z,1.2
2022-09-05T13:18:50.446Z,1.2
2022-09-05T13:20:50.294Z,1.3
2022-09-05T13:22:50.105Z,1.3
2022-09-05T13:24:50.006Z,1.3
2022-09-05T13:26:50.094Z,1.2
2022-09-05T13:29:10.197Z,1.2
2022-09-05T13:31:13.857Z,1.1
2022-09-05T13:38:09.056Z,1.4
2022-09-05T13:38:09.380Z,1.1
2022-09-05T13:38:09.769Z,1.1
2022-09-05T13:38:51.385Z,1.4
2022-09-05T13:40:50.727Z,1.3
2022-09-05T13:42:50.161Z,1.4
2022-09-05T13:44:50.163Z,1.4
2022-09-05T13:46:58.113Z,1.6
2022-09-05T13:49:28.232Z,1.6
2022-09-05T13:50:50.438Z,1.2
2022-09-05T13:52:50.488Z,1.2
2022-09-05T13:54:51.913Z,1.2
2022-09-05T13:56:50.081Z,1.1
2022-09-05T13:58:57.692Z,1.4
2022-09-05T14:00:49.696Z,1.3
2022-09-05T14:03:32.491Z,1.3
2022-09-05T14:05:05.695Z,1.3
2022-09-05T14:06:49.743Z,1.3
2022-09-05T14:10:49.993Z,1.4
2022-09-05T14:12:49.874Z,1.6
2022-09-05T14:15:11.222Z,1.6
2022-09-05T14:16:54.642Z,1.4
2022-09-05T14:18:52.749Z,1.6
2022-09-05T14:20:50.561Z,1.5
2022-09-05T14:22:51.491Z,1.3
2022-09-05T14:24:58.809Z,1.3
2022-09-05T14:26:50.567Z,1.4
2022-09-05T14:28:49.767Z,1.2
2022-09-05T14:31:26.552Z,1.3
2022-09-05T14:35:38.802Z,1.3
2022-09-05T14:37:38.157Z,1.2
2022-09-05T14:37:47.492Z,1.4
2022-09-05T14:38:51.290Z,1.3
2022-09-05T14:40:50.592Z,1.3
2022-09-05T14:42:50.021Z,1.3
2022-09-05T14:44:50.015Z,1.2
2022-09-05T14:46:50.612Z,1.3
2022-09-05T14:48:53.636Z,1.3
2022-09-05T14:50:49.806Z,1.3
2022-09-05T14:52:50.408Z,1.3
2022-09-05T14:55:21.826Z,1.3
2022-09-05T14:57:41.405Z,1.2
2022-09-05T15:02:40.101Z,1.3
2022-09-05T15:02:55.828Z,1.4
2022-09-05T15:03:01.648Z,1.4
2022-09-05T15:04:50.311Z,1.3
2022-09-05T15:06:50.651Z,1.5
2022-09-05T15:11:24.871Z,1.5
2022-09-05T15:11:26.138Z,1.7
2022-09-05T15:12:56.390Z,1.7
2022-09-05T15:14:50.671Z,1.5
2022-09-05T15:16:50.477Z,1.4
2022-09-05T15:18:49.813Z,1.5
2022-09-05T15:20:49.698Z,1.7
2022-09-05T15:22:57.826Z,1.7
2022-09-05T15:24:50.282Z,1.5
2022-09-05T15:26:53.876Z,1.5
2022-09-05T15:28:49.964Z,1.7
2022-09-05T15:30:50.655Z,1.4
2022-09-05T15:32:51.135Z,1.4
2022-09-05T15:34:50.351Z,1.6
2022-09-05T15:36:50.590Z,1.4
2022-09-05T15:38:57.541Z,1.4
2022-09-05T15:40:49.782Z,1.9
2022-09-05T15:42:49.777Z,1.5
2022-09-05T15:45:09.593Z,1.3
2022-09-05T15:46:50.164Z,1.5
2022-09-05T15:48:50.675Z,1.5
2022-09-05T15:50:50.623Z,1.5
2022-09-05T15:52:55.967Z,1.5
2022-09-05T15:54:50.031Z,1.3
2022-09-05T15:56:50.263Z,1.8
2022-09-05T15:58:55.006Z,1.8
2022-09-05T16:00:52.088Z,1.5
2022-09-05T16:03:07.308Z,1.4
2022-09-05T16:07:42.959Z,1.7
2022-09-05T16:07:57.224Z,1.6
2022-09-05T16:10:55.118Z,1.6
2022-09-05T16:11:15.371Z,1.7
2022-09-05T16:12:49.963Z,1.7
2022-09-05T16:15:14.849Z,1.7
2022-09-05T16:20:36.684Z,1.8
2022-09-05T16:23:22.974Z,1.9
2022-09-05T16:23:23.143Z,1.8
2022-09-05T16:23:35.545Z,1.9
2022-09-05T16:25:00.664Z,1.8
2022-09-05T16:26:50.661Z,1.8
2022-09-05T16:28:49.742Z,1.8
2022-09-05T16:30:49.919Z,1.9
2022-09-05T16:32:51.864Z,1.6
2022-09-05T16:34:50.612Z,1.8
2022-09-05T16:37:08.078Z,1.8
2022-09-05T16:38:50.807Z,1.8
2022-09-05T16:40:49.813Z,1.6
2022-09-05T16:42:50.659Z,1.8
2022-09-05T16:44:50.644Z,1.7
2022-09-05T16:46:49.960Z,1.7
2022-09-05T16:48:55.421Z,1.7
2022-09-05T16:50:50.804Z,1.7
2022-09-05T16:52:54.407Z,1.8
2022-09-05T16:54:50.250Z,1.9
2022-09-05T16:56:50.441Z,1.9
2022-09-05T16:58:50.528Z,2.0
2022-09-05T17:00:50.530Z,2.0
2022-09-05T17:02:50.626Z,1.9
2022-09-05T17:05:03.799Z,2.0
2022-09-05T17:06:49.676Z,2.0
2022-09-05T17:08:50.505Z,1.9
2022-09-05T17:10:58.369Z,1.9
2022-09-05T17:12:50.265Z,2.2
2022-09-05T17:14:50.204Z,2.2
2022-09-05T17:16:50.649Z,2.1
2022-09-05T17:18:49.970Z,1.9
2022-09-05T17:20:50.183Z,1.9
2022-09-05T17:24:55.360Z,2.2
2022-09-05T17:29:22.137Z,1.8
2022-09-05T17:29:22.392Z,1.7
2022-09-05T17:29:22.908Z,1.7
2022-09-05T17:32:50.397Z,1.6
2022-09-05T17:34:50.166Z,1.6
2022-09-05T17:36:50.629Z,1.6
2022-09-05T17:38:50.427Z,1.9
2022-09-05T17:40:50.473Z,2.5
2022-09-05T17:42:49.766Z,2.2
2022-09-05T17:44:53.330Z,2.2
2022-09-05T17:46:49.761Z,2.4
2022-09-05T17:49:17.811Z,3.5
2022-09-05T17:50:50.472Z,3.0
2022-09-05T17:52:50.017Z,3.0
2022-09-05T17:54:50.672Z,3.0
2022-09-05T17:56:50.148Z,2.6
2022-09-05T17:58:50.784Z,2.5
2022-09-05T18:00:50.068Z,2.2
2022-09-05T18:02:49.780Z,2.6
2022-09-05T18:04:50.396Z,2.3
2022-09-05T18:07:01.005Z,2.3
2022-09-05T18:08:53.158Z,2.6
2022-09-05T18:10:50.497Z,2.6
2022-09-05T18:13:12.361Z,2.4
2022-09-05T18:15:05.007Z,2.6
2022-09-05T18:17:35.586Z,2.6
2022-09-05T18:19:27.657Z,2.5
2022-09-05T18:20:50.179Z,2.7
2022-09-05T18:23:16.653Z,2.8
2022-09-05T18:24:50.199Z,2.8
2022-09-05T18:26:54.784Z,2.4
2022-09-05T18:28:49.751Z,2.4
2022-09-05T18:30:49.731Z,2.4
2022-09-05T18:33:54.835Z,2.5
2022-09-05T18:34:50.133Z,2.5
2022-09-05T18:36:50.403Z,2.4
2022-09-05T18:38:52.529Z,2.5
2022-09-05T18:40:49.861Z,2.6
2022-09-05T18:42:52.621Z,2.6
2022-09-05T18:44:50.473Z,3.1
2022-09-05T18:46:50.135Z,2.9
2022-09-05T18:49:39.301Z,3.0
2022-09-05T18:50:52.722Z,2.8
2022-09-05T18:53:08.629Z,2.8
2022-09-05T18:55:46.333Z,3.1
2022-09-05T18:57:15.341Z,2.6
2022-09-05T18:58:52.311Z,2.8
2022-09-05T19:00:50.744Z,2.8
2022-09-05T19:02:59.409Z,2.7
2022-09-05T19:04:50.559Z,2.7
2022-09-05T19:06:50.075Z,2.7
2022-09-05T19:08:50.055Z,2.6
2022-09-05T19:10:51.359Z,2.6
2022-09-05T19:12:53.843Z,3.1
2022-09-05T19:14:50.094Z,2.7
2022-09-05T19:16:50.720Z,2.6
2022-09-05T19:18:50.569Z,2.7
2022-09-05T19:20:55.098Z,2.7
2022-09-05T19:23:11.439Z,3.1
2022-09-05T19:24:50.667Z,3.1
2022-09-05T19:27:21.071Z,2.9
2022-09-05T19:33:40.084Z,3.0
2022-09-05T19:36:47.681Z,2.9
2022-09-05T19:36:48.432Z,2.9
2022-09-05T19:37:18.868Z,3.1
2022-09-05T19:37:19.300Z,2.9
2022-09-05T19:39:43.281Z,3.0
2022-09-05T19:43:31.107Z,3.0
2022-09-05T19:47:31.744Z,3.1
2022-09-05T19:47:32.805Z,3.2
2022-09-05T19:47:33.425Z,3.1
2022-09-05T19:48:49.738Z,2.9
2022-09-05T19:50:49.783Z,2.9
2022-09-05T19:52:49.782Z,2.7
2022-09-05T19:54:49.803Z,2.7
2022-09-05T19:56:50.167Z,2.5
2022-09-05T19:58:50.365Z,2.6
2022-09-05T20:01:01.214Z,2.6
2022-09-05T20:02:51.671Z,2.7
2022-09-05T20:04:53.411Z,2.5
2022-09-05T20:06:49.950Z,2.7
2022-09-05T20:08:49.992Z,2.7
2022-09-05T20:10:50.189Z,2.7
2022-09-05T20:12:49.943Z,3.0
2022-09-05T20:14:49.940Z,2.6
2022-09-05T20:16:50.759Z,2.8
2022-09-05T20:18:49.975Z,2.8
2022-09-05T20:20:51.529Z,3.1
2022-09-05T20:22:51.157Z,3.1
2022-09-05T20:24:50.334Z,3.1
2022-09-05T20:26:50.043Z,3.2
2022-09-05T20:28:54.851Z,3.2
2022-09-05T20:30:49.911Z,2.5
2022-09-05T20:32:50.049Z,2.8
2022-09-05T20:35:17.511Z,2.9
2022-09-05T20:37:40.190Z,3.1
2022-09-05T20:43:12.826Z,2.7
2022-09-05T20:43:14.044Z,2.7
2022-09-05T20:43:26.051Z,2.6
2022-09-05T20:44:50.249Z,2.8
2022-09-05T20:48:19.442Z,3.1
2022-09-05T20:52:13.856Z,2.9
2022-09-05T20:54:11.391Z,2.9
2022-09-05T20:54:23.943Z,2.9
2022-09-05T20:54:51.122Z,3.0
2022-09-05T20:56:56.822Z,2.8
2022-09-05T20:58:49.924Z,2.8
2022-09-05T21:01:15.368Z,2.7
2022-09-05T21:02:50.263Z,2.6
2022-09-05T21:04:50.375Z,2.8
2022-09-05T21:06:49.831Z,2.8
2022-09-05T21:08:49.836Z,2.8
2022-09-05T21:10:56.449Z,2.8
2022-09-05T21:12:49.745Z,2.5
2022-09-05T21:14:49.733Z,3.3
2022-09-05T21:16:50.164Z,3.3
2022-09-05T21:18:50.460Z,2.8
2022-09-05T21:20:50.670Z,2.8
2022-09-05T21:22:50.661Z,2.6
2022-09-05T21:24:50.519Z,2.7
2022-09-05T21:26:50.154Z,2.7
2022-09-05T21:28:50.318Z,2.7
2022-09-05T21:30:52.586Z,2.8
2022-09-05T21:32:50.617Z,3.0
2022-09-05T21:34:50.593Z,3.0
2022-09-05T21:37:01.228Z,2.9
2022-09-05T21:38:49.708Z,2.9
2022-09-05T21:40:52.884Z,2.7
2022-09-05T21:45:46.017Z,3.1
2022-09-05T21:46:28.710Z,3.1
2022-09-05T21:47:45.968Z,3.4
2022-09-05T21:48:57.043Z,3.3
2022-09-05T21:50:50.130Z,2.8
2022-09-05T21:53:17.465Z,3.0
2022-09-05T21:58:00.799Z,3.0
2022-09-05T21:59:22.879Z,2.9
2022-09-05T21:59:23.969Z,2.9
2022-09-05T22:00:50.229Z,3.0
2022-09-05T22:02:50.509Z,2.9
2022-09-05T22:04:50.088Z,2.9
2022-09-05T22:06:50.228Z,3.0
2022-09-05T22:09:13.403Z,3.2
2022-09-05T22:10:52.802Z,3.0
2022-09-05T22:12:50.305Z,2.8
2022-09-05T22:14:50.361Z,2.8
2022-09-05T22:16:49.803Z,3.3
2022-09-05T22:18:50.244Z,2.6
2022-09-05T22:21:33.655Z,3.1
2022-09-05T22:22:57.090Z,3.5
2022-09-05T22:24:49.917Z,3.5
2022-09-05T22:27:10.980Z,3.1
2022-09-05T22:28:50.052Z,3.0
2022-09-05T22:30:50.221Z,3.4
2022-09-05T22:32:50.465Z,3.4
2022-09-05T22:34:49.762Z,3.0
2022-09-05T22:36:49.872Z,3.0
2022-09-05T22:38:50.166Z,3.0
2022-09-05T22:40:50.181Z,3.2
2022-09-05T22:42:50.222Z,3.2
2022-09-05T22:44:50.350Z,3.2
2022-09-05T22:46:49.975Z,3.2
2022-09-05T22:48:50.060Z,3.1
2022-09-05T22:50:49.994Z,2.9
2022-09-05T22:52:49.905Z,2.9
2022-09-05T22:54:49.896Z,3.0
2022-09-05T22:56:50.575Z,2.8
2022-09-05T22:58:49.685Z,2.9
2022-09-05T23:00:50.626Z,3.2
2022-09-05T23:02:53.011Z,3.2
2022-09-05T23:04:50.579Z,3.3
2022-09-05T23:06:49.951Z,3.4
2022-09-05T23:08:50.015Z,2.9
2022-09-05T23:10:50.045Z,2.9
2022-09-05T23:12:50.262Z,3.3
2022-09-05T23:14:50.533Z,3.3
2022-09-05T23:16:50.026Z,3.4
2022-09-05T23:18:50.067Z,2.9
2022-09-05T23:20:50.193Z,3.1
2022-09-05T23:22:50.049Z,3.1
2022-09-05T23:24:50.252Z,2.7
2022-09-05T23:26:50.635Z,3.0
2022-09-05T23:28:49.703Z,3.0
2022-09-05T23:30:49.791Z,2.9
2022-09-05T23:32:49.880Z,2.9
2022-09-05T23:34:50.378Z,3.0
2022-09-05T23:36:49.733Z,3.0
2022-09-05T23:38:49.763Z,2.9
2022-09-05T23:40:50.649Z,2.9
2022-09-05T23:42:50.649Z,3.0
2022-09-05T23:44:50.647Z,2.8
2022-09-05T23:46:49.788Z,2.7
2022-09-05T23:48:49.755Z,2.7
2022-09-05T23:50:49.726Z,3.4
2022-09-05T23:52:49.958Z,3.1
2022-09-05T23:54:49.873Z,3.1
2022-09-05T23:56:50.392Z,3.1
2022-09-05T23:58:50.381Z,3.1
